Time;durP1;ratioP1;P1;durP2;ratioP2;P2;SDS_P1;SDS_P2;PMS_P1;PMS_P2;Temp;Humidity;BMP_temperature;BMP_pressure;BME280_temperature;BME280_humidity;BME280_pressure;Samples;Min_cycle;Max_cycle;Signal;HPM_P1;HPM_P2
2021/11/17 02:26:22;;;;;;;26.08;3.05;;;;;;;7.68;100.00;101772.50;6227777;22;20008;-95
2021/11/17 02:28:51;;;;;;;15.40;3.28;;;;;;;7.74;100.00;101763.06;6224324;22;20566;-95
2021/11/17 02:31:52;;;;;;;16.25;3.72;;;;;;;7.85;98.91;101749.59;6224572;22;20004;-94
2021/11/17 02:34:30;;;;;;;28.85;2.75;;;;;;;7.84;98.58;101731.84;6224861;22;20367;-95
2021/11/17 02:37:36;;;;;;;18.50;3.63;;;;;;;7.92;96.75;101729.34;6200750;22;20439;-93
2021/11/17 02:40:17;;;;;;;17.13;2.85;;;;;;;8.16;95.80;101754.94;6179521;22;20007;-95
2021/11/17 02:43:13;;;;;;;27.05;3.97;;;;;;;8.11;95.49;101747.31;6198355;22;20007;-94
2021/11/17 02:45:51;;;;;;;19.83;3.30;;;;;;;8.13;96.92;101755.22;6196128;22;20007;-94
2021/11/17 02:48:23;;;;;;;13.50;2.60;;;;;;;8.03;97.46;101757.03;6223039;22;20015;-94
2021/11/17 02:50:51;;;;;;;28.25;3.83;;;;;;;7.91;98.86;101759.78;6224433;22;20003;-92
2021/11/17 02:53:21;;;;;;;17.27;3.72;;;;;;;7.87;99.53;101758.34;6224551;22;20012;-93
2021/11/17 02:56:16;;;;;;;28.80;3.53;;;;;;;7.74;100.00;101747.00;6224540;22;20039;-95
2021/11/17 02:59:24;;;;;;;17.30;3.47;;;;;;;7.79;100.00;101768.88;6199828;22;20374;-92
2021/11/17 03:01:58;;;;;;;16.20;2.85;;;;;;;7.66;100.00;101761.06;6216062;22;20035;-93
2021/11/17 03:04:39;;;;;;;20.60;4.05;;;;;;;7.77;100.00;101799.44;6199540;22;20015;-93
2021/11/17 03:07:44;;;;;;;28.45;3.42;;;;;;;7.66;100.00;101773.59;6224057;22;20076;-93
2021/11/17 03:10:15;;;;;;;23.25;2.55;;;;;;;7.77;100.00;101791.41;6198136;22;20015;-92
2021/11/17 03:12:52;;;;;;;15.07;3.25;;;;;;;7.82;100.00;101802.59;6223252;22;20011;-94
2021/11/17 03:15:33;;;;;;;16.23;3.05;;;;;;;7.83;99.72;101796.22;6223880;22;20018;-94
2021/11/17 03:18:12;;;;;;;15.90;2.47;;;;;;;7.84;99.79;101805.97;6223220;22;20006;-93
2021/11/17 03:20:37;;;;;;;23.95;3.95;;;;;;;7.87;100.00;101811.91;6174755;22;20038;-93
2021/11/17 03:23:22;;;;;;;19.52;3.60;;;;;;;7.94;99.81;101814.91;6222831;22;20324;-93
2021/11/17 03:25:56;;;;;;;23.55;3.05;;;;;;;7.93;99.37;101802.50;6223944;22;20015;-93
2021/11/17 03:28:41;;;;;;;34.60;3.75;;;;;;;8.03;98.62;101806.06;6223777;22;20008;-94
2021/11/17 03:31:31;;;;;;;20.35;3.53;;;;;;;8.01;98.41;101793.78;6224114;22;20438;-91
2021/11/17 03:34:12;;;;;;;23.20;2.90;;;;;;;8.03;98.79;101799.88;6175884;22;20015;-91
2021/11/17 03:37:10;;;;;;;24.42;3.80;;;;;;;7.92;99.10;101785.59;6224309;22;20038;-92
2021/11/17 03:40:02;;;;;;;15.73;3.10;;;;;;;7.89;99.17;101782.34;6176024;22;20011;-93
2021/11/17 03:42:52;;;;;;;17.60;2.42;;;;;;;7.99;99.12;101798.44;6200909;22;20419;-91
2021/11/17 03:45:36;;;;;;;17.08;2.80;;;;;;;7.96;98.29;101802.22;6225279;22;20007;-93
2021/11/17 03:48:20;;;;;;;24.50;3.38;;;;;;;8.02;98.46;101800.84;6222914;22;20034;-93
2021/11/17 03:51:08;;;;;;;20.98;3.47;;;;;;;8.01;97.12;101800.00;6223703;22;20008;-95
2021/11/17 03:53:56;;;;;;;27.92;3.38;;;;;;;8.08;96.51;101800.31;6201861;22;20097;-93
2021/11/17 03:56:43;;;;;;;23.98;2.85;;;;;;;7.96;96.78;101783.47;6220462;22;20458;-94
2021/11/17 03:59:22;;;;;;;24.10;3.30;;;;;;;8.01;96.05;101791.13;6202139;22;20020;-95
2021/11/17 04:01:48;;;;;;;12.32;2.45;;;;;;;8.04;97.25;101798.88;6199370;22;20008;-94
2021/11/17 04:04:30;;;;;;;21.25;3.72;;;;;;;8.13;95.45;101811.50;6223632;22;20316;-95
2021/11/17 04:07:06;;;;;;;14.85;2.60;;;;;;;8.24;94.24;101824.78;6223961;22;20312;-94
2021/11/17 04:09:32;;;;;;;16.15;3.25;;;;;;;8.33;92.93;101823.13;6223013;22;20054;-94
2021/11/17 04:12:10;;;;;;;16.15;3.88;;;;;;;8.39;92.41;101814.59;6223494;22;20367;-93
2021/11/17 04:15:13;;;;;;;25.33;3.42;;;;;;;8.41;91.77;101830.50;6223348;22;20027;-95
2021/11/17 04:17:42;;;;;;;16.77;3.10;;;;;;;8.41;91.27;101819.78;6223537;22;20042;-93
2021/11/17 04:20:40;;;;;;;16.33;3.88;;;;;;;8.30;91.16;101805.47;6224094;22;20007;-92
2021/11/17 04:23:21;;;;;;;28.10;3.15;;;;;;;8.28;92.08;101810.16;6202410;22;19999;-92
2021/11/17 04:26:15;;;;;;;18.77;2.85;;;;;;;8.35;92.77;101826.53;6198590;22;20015;-93
2021/11/17 04:28:53;;;;;;;20.17;3.08;;;;;;;8.32;93.20;101827.63;6223282;22;20034;-92
2021/11/17 04:31:33;;;;;;;24.05;2.67;;;;;;;8.25;94.28;101831.81;6223684;22;20090;-95
2021/11/17 04:34:29;;;;;;;16.48;3.05;;;;;;;8.24;94.93;101835.50;6223871;22;20042;-94
2021/11/17 04:37:06;;;;;;;25.67;3.22;;;;;;;8.07;96.14;101823.59;6223755;22;20066;-93
2021/11/17 04:39:38;;;;;;;23.60;3.13;;;;;;;8.05;96.46;101828.22;6198014;22;20027;-93
2021/11/17 04:42:33;;;;;;;22.90;2.90;;;;;;;8.17;96.46;101860.28;6223811;22;20008;-92
2021/11/17 04:45:23;;;;;;;21.90;3.25;;;;;;;8.12;97.09;101847.28;6223553;22;20458;-91
2021/11/17 04:48:07;;;;;;;14.93;2.85;;;;;;;8.14;97.21;101866.75;6198945;22;20015;-93
2021/11/17 04:50:57;;;;;;;22.40;3.10;;;;;;;8.14;97.45;101859.56;6223133;22;20431;-93
2021/11/17 04:53:40;;;;;;;29.92;4.68;;;;;;;8.04;97.28;101849.78;6198248;22;20384;-92
2021/11/17 04:56:33;;;;;;;25.45;3.40;;;;;;;8.10;97.39;101857.28;6175865;22;20023;-93
2021/11/17 04:59:27;;;;;;;25.33;3.28;;;;;;;8.14;97.69;101856.88;6175674;22;19999;-92
2021/11/17 05:02:17;;;;;;;17.63;2.83;;;;;;;8.17;98.10;101861.13;6224220;22;20003;-91
2021/11/17 05:04:49;;;;;;;20.60;2.92;;;;;;;8.14;98.33;101856.03;6200318;22;20027;-93
2021/11/17 05:07:34;;;;;;;22.45;2.70;;;;;;;8.14;98.49;101856.88;6225656;22;20427;-92
2021/11/17 05:10:27;;;;;;;13.95;2.65;;;;;;;8.11;98.20;101862.50;6224772;22;20320;-93
2021/11/17 05:12:59;;;;;;;20.73;3.45;;;;;;;8.10;98.41;101865.34;6200045;22;20030;-94
2021/11/17 05:15:52;;;;;;;16.83;3.42;;;;;;;8.03;98.98;101866.84;6224939;22;20069;-93
2021/11/17 05:18:33;;;;;;;17.98;3.30;;;;;;;8.12;98.75;101885.66;6177576;22;20007;-93
2021/11/17 05:21:20;;;;;;;16.10;2.72;;;;;;;8.10;98.84;101882.25;6198682;22;20008;-93
2021/11/17 05:24:02;;;;;;;30.45;3.42;;;;;;;8.06;99.32;101871.94;6224907;22;20004;-93
2021/11/17 05:26:34;;;;;;;27.55;4.82;;;;;;;8.13;99.08;101875.78;6177159;22;20065;-92
2021/11/17 05:29:06;;;;;;;29.77;2.95;;;;;;;8.09;99.03;101868.97;6225234;22;20046;-92
2021/11/17 05:31:39;;;;;;;14.60;2.33;;;;;;;8.15;99.15;101884.53;6224096;22;20218;-93
2021/11/17 05:34:14;;;;;;;21.10;2.83;;;;;;;8.17;97.71;101890.59;6224767;22;20097;-94
2021/11/17 05:36:50;;;;;;;26.08;3.30;;;;;;;8.13;97.71;101865.06;6199135;22;20030;-93
2021/11/17 05:39:47;;;;;;;20.92;2.75;;;;;;;8.27;95.97;101869.22;6199359;22;20019;-94
2021/11/17 05:42:39;;;;;;;25.60;4.13;;;;;;;8.37;95.84;101862.91;6201398;22;20103;-92
2021/11/17 05:45:19;;;;;;;34.92;4.32;;;;;;;8.36;95.27;101853.19;6224273;22;19995;-92
2021/11/17 05:48:13;;;;;;;20.40;2.90;;;;;;;8.33;94.59;101844.56;6224605;22;20054;-91
2021/11/17 05:50:45;;;;;;;23.88;3.83;;;;;;;8.45;93.60;101853.41;6202370;22;20420;-93
2021/11/17 05:53:34;;;;;;;25.45;3.67;;;;;;;8.43;93.52;101845.47;6200080;22;20026;-93
2021/11/17 05:56:18;;;;;;;33.83;4.07;;;;;;;8.39;92.66;101836.03;6199952;22;20004;-91
2021/11/17 05:58:53;;;;;;;19.52;3.10;;;;;;;8.47;92.90;101851.44;6201494;22;20008;-93
2021/11/17 06:01:25;;;;;;;21.48;3.08;;;;;;;8.45;92.66;101859.59;6224354;22;20014;-93
2021/11/17 06:04:01;;;;;;;22.55;3.65;;;;;;;8.40;92.30;101850.28;6224633;22;20012;-93
2021/11/17 06:06:39;;;;;;;24.48;4.03;;;;;;;8.32;92.43;101853.59;6225748;22;20015;-93
2021/11/17 06:09:07;;;;;;;20.98;3.05;;;;;;;8.32;93.20;101857.13;6223937;22;20092;-92
2021/11/17 06:11:56;;;;;;;29.05;3.58;;;;;;;8.17;92.82;101845.03;6224849;22;20087;-93
2021/11/17 06:14:33;;;;;;;28.60;3.25;;;;;;;8.11;92.63;101846.44;6199068;22;20018;-92
2021/11/17 06:17:11;;;;;;;27.35;3.30;;;;;;;8.11;92.88;101854.47;6199734;22;19999;-93
2021/11/17 06:19:42;;;;;;;15.88;3.78;;;;;;;8.12;93.16;101858.00;6200144;22;19995;-93
2021/11/17 06:22:20;;;;;;;27.38;3.25;;;;;;;8.22;92.34;101860.72;6199658;22;20034;-93
2021/11/17 06:24:53;;;;;;;21.25;3.20;;;;;;;8.22;92.05;101848.19;6201961;22;20011;-92
2021/11/17 06:27:25;;;;;;;21.55;3.22;;;;;;;8.27;91.59;101855.81;6224493;22;20003;-91
2021/11/17 06:29:53;;;;;;;28.20;4.47;;;;;;;8.21;90.54;101846.50;6199639;22;20008;-92
2021/11/17 06:32:19;;;;;;;21.77;2.95;;;;;;;8.26;91.23;101865.69;6199609;22;20007;-92
2021/11/17 06:34:54;;;;;;;21.38;3.47;;;;;;;8.13;91.18;101860.56;6199195;22;20010;-92
2021/11/17 06:37:22;;;;;;;23.65;3.17;;;;;;;8.11;91.68;101862.50;6199709;22;20014;-92
2021/11/17 06:39:51;;;;;;;13.15;2.75;;;;;;;8.08;92.08;101870.81;6199256;22;20081;-92
2021/11/17 06:42:38;;;;;;;19.63;2.78;;;;;;;8.05;92.56;101871.09;6198515;22;20003;-92
2021/11/17 06:45:11;;;;;;;17.25;3.22;;;;;;;7.96;92.18;101852.25;6200220;22;20004;-91
2021/11/17 06:47:44;;;;;;;19.83;3.28;;;;;;;7.98;92.59;101867.22;6174834;22;20038;-91
2021/11/17 06:50:10;;;;;;;;;;;;;;;8.04;92.63;101888.13;6199532;22;20007;-92
2021/11/17 06:52:36;;;;;;;17.30;5.30;;;;;;;7.93;92.83;101875.66;6198506;22;20006;-91
2021/11/17 06:55:04;;;;;;;16.23;2.70;;;;;;;7.90;92.85;101873.22;6198768;22;20011;-92
2021/11/17 06:57:30;;;;;;;18.17;3.25;;;;;;;7.92;93.83;101890.03;6198928;22;20004;-93
2021/11/17 06:59:58;;;;;;;20.50;3.60;;;;;;;7.79;93.30;101872.47;6200494;22;20098;-92
2021/11/17 07:02:24;;;;;;;17.42;2.95;;;;;;;7.77;94.03;101877.09;6198759;22;20655;-94
2021/11/17 07:04:50;;;;;;;18.00;3.15;;;;;;;7.82;94.82;101886.44;6198854;22;20012;-91
2021/11/17 07:07:16;;;;;;;21.23;3.35;;;;;;;7.83;94.73;101887.28;6198866;22;20035;-94
2021/11/17 07:09:44;;;;;;;15.95;3.03;;;;;;;7.71;94.66;101879.31;6199247;22;20011;-92
2021/11/17 07:12:12;;;;;;;21.13;3.92;;;;;;;7.66;94.59;101878.00;6197534;22;20012;-91
2021/11/17 07:15:35;;;;;;;21.63;3.42;;;;;;;7.70;94.98;101891.00;6198028;22;20098;-93
2021/11/17 07:17:39;;;;;;;35.08;5.00;;;;;;;7.78;94.91;101903.75;6202876;22;20065;-92
2021/11/17 07:20:13;;;;;;;19.90;3.35;;;;;;;7.72;95.29;101897.06;6199808;22;20014;-93
2021/11/17 07:22:39;;;;;;;20.85;3.10;;;;;;;7.76;95.07;101913.72;6197381;22;20011;-92
2021/11/17 07:25:07;;;;;;;22.08;3.72;;;;;;;7.77;95.12;101918.09;6196782;22;20011;-92
2021/11/17 07:27:33;;;;;;;28.27;4.07;;;;;;;7.70;95.63;101915.09;6221750;22;20061;-92
2021/11/17 07:29:58;;;;;;;20.13;3.75;;;;;;;7.71;95.94;101914.09;6196940;22;20372;-92
2021/11/17 07:32:26;;;;;;;28.98;4.18;;;;;;;7.71;96.05;101916.78;6196584;22;20069;-92
2021/11/17 07:34:52;;;;;;;27.50;4.35;;;;;;;7.77;96.23;101930.63;6194325;22;20038;-92
2021/11/17 07:37:18;;;;;;;20.75;4.15;;;;;;;7.80;96.10;101931.22;6195854;22;20362;-92
2021/11/17 07:39:44;;;;;;;22.27;4.18;;;;;;;7.75;96.54;101920.03;6196845;22;20004;-91
2021/11/17 07:42:11;;;;;;;18.20;4.45;;;;;;;7.81;97.04;101926.75;6195593;22;20066;-94
2021/11/17 07:44:37;;;;;;;23.88;4.38;;;;;;;7.70;96.68;101900.88;6195797;22;20030;-92
2021/11/17 07:47:03;;;;;;;21.88;3.67;;;;;;;7.76;97.19;101921.75;6195739;22;20439;-93
2021/11/17 07:49:29;;;;;;;22.40;4.78;;;;;;;7.65;97.36;101890.53;6196910;22;20019;-92
2021/11/17 07:51:56;;;;;;;24.23;3.65;;;;;;;7.62;96.91;101887.25;6196621;22;20061;-92
2021/11/17 07:54:23;;;;;;;25.20;3.75;;;;;;;7.53;98.08;101899.59;6196545;22;20019;-94
2021/11/17 07:56:49;;;;;;;20.60;4.50;;;;;;;7.49;98.35;101907.03;6196321;22;20011;-92
2021/11/17 07:59:22;;;;;;;21.88;3.83;;;;;;;7.36;99.27;101902.84;6196139;22;20007;-93
2021/11/17 08:01:49;;;;;;;20.15;3.65;;;;;;;7.48;98.96;101934.75;6196738;22;19999;-92
2021/11/17 08:04:20;;;;;;;18.65;3.88;;;;;;;7.43;98.90;101934.28;6196904;22;20006;-90
2021/11/17 08:06:47;;;;;;;21.58;3.65;;;;;;;7.46;98.53;101942.09;6196423;22;19996;-93
2021/11/17 08:09:14;;;;;;;23.60;4.22;;;;;;;7.56;99.07;101958.22;6196043;22;20038;-92
2021/11/17 08:11:41;;;;;;;21.50;4.32;;;;;;;7.52;98.60;101950.59;6196235;22;20423;-93
2021/11/17 08:14:08;;;;;;;35.70;5.85;;;;;;;7.46;98.30;101936.72;6222026;22;20004;-91
2021/11/17 08:16:46;;;;;;;29.30;3.33;;;;;;;7.49;98.35;101940.97;6202638;22;20011;-93
2021/11/17 08:19:14;;;;;;;33.95;5.50;;;;;;;7.52;98.29;101950.59;6197135;22;20082;-91
2021/11/17 08:21:40;;;;;;;23.73;3.42;;;;;;;7.56;98.43;101960.03;6196200;22;20004;-94
2021/11/17 08:24:13;;;;;;;24.48;5.50;;;;;;;7.61;98.03;101971.22;6196635;22;20400;-92
2021/11/17 08:26:39;;;;;;;23.75;3.40;;;;;;;7.64;98.08;101965.63;6196247;22;20012;-92
2021/11/17 08:29:09;;;;;;;22.67;5.22;;;;;;;7.53;97.53;101944.25;6196526;22;20305;-91
2021/11/17 08:31:36;;;;;;;17.85;3.25;;;;;;;7.66;97.59;101952.97;6198174;22;20501;-91
2021/11/17 08:34:02;;;;;;;21.63;3.95;;;;;;;7.66;96.65;101942.25;6196214;22;20026;-90
2021/11/17 08:36:29;;;;;;;19.95;4.07;;;;;;;7.72;96.10;101949.75;6196866;22;20011;-91
2021/11/17 08:38:55;;;;;;;30.98;4.88;;;;;;;7.81;96.33;101951.69;6198186;22;20104;-92
2021/11/17 08:41:23;;;;;;;19.77;3.40;;;;;;;7.86;95.44;101953.97;6198021;22;20220;-92
2021/11/17 08:43:49;;;;;;;16.88;3.38;;;;;;;7.86;95.57;101946.78;6198345;22;20071;-91
2021/11/17 08:46:26;;;;;;;22.02;4.22;;;;;;;7.87;94.82;101945.81;6197490;22;20007;-90
2021/11/17 08:48:54;;;;;;;19.17;4.25;;;;;;;8.04;95.09;101954.22;6199263;22;20012;-91
2021/11/17 08:51:29;;;;;;;24.65;4.22;;;;;;;8.01;94.32;101943.78;6248913;22;20007;-91
2021/11/17 08:53:55;;;;;;;19.98;3.33;;;;;;;8.05;94.15;101948.75;6199884;22;20008;-92
2021/11/17 08:56:21;;;;;;;18.45;4.53;;;;;;;8.17;94.28;101954.88;6198656;22;20008;-90
2021/11/17 08:58:47;;;;;;;21.48;3.83;;;;;;;8.31;93.75;101976.00;6199086;22;20368;-91
2021/11/17 09:01:13;;;;;;;21.77;3.83;;;;;;;8.30;93.73;101962.72;6199049;22;20023;-90
2021/11/17 09:03:39;;;;;;;20.48;3.42;;;;;;;8.21;93.59;101953.66;6199083;22;20011;-92
2021/11/17 09:06:10;;;;;;;20.17;4.85;;;;;;;8.17;93.18;101952.22;6200059;22;20447;-91
2021/11/17 09:08:36;;;;;;;13.23;3.05;;;;;;;8.13;93.93;101959.66;6225035;22;20008;-91
2021/11/17 09:11:09;;;;;;;11.38;2.90;;;;;;;8.10;93.42;101951.91;6200240;22;20078;-93
2021/11/17 09:13:35;;;;;;;17.85;3.33;;;;;;;8.25;93.16;101970.31;6199614;22;20050;-91
2021/11/17 09:16:02;;;;;;;19.00;3.72;;;;;;;8.25;93.20;101955.09;6199586;22;20003;-91
2021/11/17 09:18:30;;;;;;;22.48;4.50;;;;;;;8.44;92.82;101972.28;6199907;22;20428;-91
2021/11/17 09:20:57;;;;;;;21.30;4.80;;;;;;;8.48;92.07;101960.34;6225024;22;20075;-92
2021/11/17 09:23:26;;;;;;;38.05;9.32;;;;;;;8.47;92.08;101958.66;6200265;22;20010;-93
2021/11/17 09:25:53;;;;;;;24.63;6.50;;;;;;;8.59;92.32;101966.47;6201720;22;20474;-92
2021/11/17 09:28:23;;;;;;;19.00;5.07;;;;;;;8.61;91.58;101971.69;6201338;22;20008;-91
2021/11/17 09:30:49;;;;;;;27.77;6.75;;;;;;;8.75;92.03;101986.56;6200873;22;20046;-90
2021/11/17 09:33:15;;;;;;;22.42;4.57;;;;;;;8.75;91.42;101990.09;6201063;22;20035;-90
2021/11/17 09:35:42;;;;;;;23.40;3.67;;;;;;;8.80;91.13;101987.88;6201468;22;20002;-91
2021/11/17 09:38:10;;;;;;;28.85;3.83;;;;;;;8.90;91.52;101997.81;6225891;22;20000;-92
2021/11/17 09:40:48;;;;;;;28.23;4.38;;;;;;;8.95;91.10;102000.94;6200508;22;19996;-92
2021/11/17 09:43:16;;;;;;;20.35;5.05;;;;;;;8.92;91.16;101974.41;6228253;22;20057;-92
2021/11/17 09:45:45;;;;;;;20.08;4.18;;;;;;;9.00;90.74;101983.44;6206175;22;20019;-90
2021/11/17 09:48:13;;;;;;;29.67;4.68;;;;;;;9.03;90.84;101977.81;6205752;22;19999;-91
2021/11/17 09:50:44;;;;;;;19.23;3.78;;;;;;;9.14;90.42;101997.47;6205901;22;20065;-92
2021/11/17 09:53:29;;;;;;;19.45;3.42;;;;;;;9.14;90.59;101987.59;6231007;22;20014;-91
2021/11/17 09:56:06;;;;;;;27.27;3.95;;;;;;;9.16;90.46;101987.47;6205752;22;20010;-92
2021/11/17 09:58:46;;;;;;;33.05;5.50;;;;;;;9.28;89.81;101996.25;6232078;22;20419;-92
2021/11/17 10:01:18;;;;;;;26.83;4.32;;;;;;;9.28;89.58;101982.81;6205640;22;20003;-90
2021/11/17 10:03:55;;;;;;;13.25;2.15;;;;;;;9.33;89.37;101983.25;6230929;22;20007;-90
2021/11/17 10:09:48;;;;;;;19.00;3.78;;;;;;;9.49;89.12;101993.47;6232541;22;20007;-91
2021/11/17 10:14:53;;;;;;;22.08;3.38;;;;;;;9.60;88.42;102002.25;6254354;22;20542;-92
2021/11/17 10:18:06;;;;;;;17.65;3.17;;;;;;;9.54;88.49;101978.63;6206984;22;20167;-94
2021/11/17 10:20:38;;;;;;;28.90;3.38;;;;;;;9.71;88.00;101998.56;6221588;22;20014;-92
2021/11/17 10:23:53;;;;;;;23.42;3.70;;;;;;;9.76;87.90;102001.69;6200356;22;20038;-90
2021/11/17 10:26:19;;;;;;;23.23;3.10;;;;;;;9.69;87.52;101993.34;6224827;22;20004;-93
2021/11/17 10:29:03;;;;;;;23.67;4.03;;;;;;;9.75;87.60;101993.78;6199347;22;20015;-91
2021/11/17 10:31:53;;;;;;;20.98;4.30;;;;;;;9.81;87.63;102026.28;6197343;22;20415;-92
2021/11/17 10:34:35;;;;;;;14.85;3.33;;;;;;;9.85;87.55;102019.66;6198345;22;20442;-92
2021/11/17 10:37:14;;;;;;;17.65;5.35;;;;;;;9.86;87.44;102015.97;6198833;22;20006;-94
2021/11/17 10:39:39;;;;;;;24.67;3.78;;;;;;;9.97;87.16;102024.91;6198863;22;20003;-92
2021/11/17 10:42:35;;;;;;;13.85;2.90;;;;;;;10.03;87.13;102030.56;6224597;22;20003;-92
2021/11/17 10:45:27;;;;;;;21.83;3.60;;;;;;;10.01;87.12;102024.50;6200466;22;20007;-91
2021/11/17 10:47:53;;;;;;;21.95;3.20;;;;;;;9.95;87.01;102011.63;6249126;22;20011;-92
2021/11/17 10:50:25;;;;;;;24.17;5.10;;;;;;;10.05;86.90;102025.03;6198283;22;20461;-91
2021/11/17 10:53:01;;;;;;;32.37;4.00;;;;;;;9.96;86.96;102005.25;6223291;22;20014;-91
2021/11/17 10:55:40;;;;;;;31.20;3.65;;;;;;;10.06;86.96;102010.63;6223147;22;20253;-94
2021/11/17 10:58:10;;;;;;;22.73;3.47;;;;;;;10.03;87.15;102018.94;6223521;22;20016;-92
2021/11/17 11:00:58;;;;;;;24.90;4.25;;;;;;;10.01;87.19;102018.28;6197631;22;20007;-90
2021/11/17 11:03:28;;;;;;;17.55;3.22;;;;;;;10.01;87.41;102023.66;6200670;22;20011;-92
2021/11/17 11:06:22;;;;;;;45.35;4.22;;;;;;;10.07;87.75;102026.59;6225259;22;20011;-91
2021/11/17 11:08:53;;;;;;;28.40;4.03;;;;;;;10.20;86.95;102009.34;6199871;22;20080;-91
2021/11/17 11:11:20;;;;;;;23.10;3.95;;;;;;;10.28;86.76;101996.06;6200083;22;20343;-89
2021/11/17 11:14:03;;;;;;;26.38;3.75;;;;;;;10.43;86.06;102005.41;6200168;22;20091;-93
2021/11/17 11:16:45;;;;;;;23.58;4.57;;;;;;;10.51;85.58;101997.44;6200072;22;20035;-91
2021/11/17 11:19:10;;;;;;;24.60;4.28;;;;;;;10.64;85.01;102009.72;6200005;22;20015;-91
2021/11/17 11:21:45;;;;;;;21.73;4.03;;;;;;;10.68;84.30;101990.44;6224576;22;20012;-90
2021/11/17 11:24:37;;;;;;;24.15;4.03;;;;;;;10.83;83.67;101990.84;6225534;22;20015;-93
2021/11/17 11:27:05;;;;;;;24.25;5.45;;;;;;;10.91;83.44;101977.50;6225560;22;20319;-92
2021/11/17 11:30:20;;;;;;;20.42;4.13;;;;;;;11.20;82.91;101981.91;6225307;22;20004;-92
2021/11/17 11:32:48;;;;;;;26.85;4.03;;;;;;;11.02;83.29;101975.59;6225130;22;20008;-92
2021/11/17 11:35:18;;;;;;;19.90;3.05;;;;;;;10.98;83.31;101977.72;6224642;22;20003;-93
2021/11/17 11:37:46;;;;;;;29.35;3.75;;;;;;;11.00;83.23;101987.34;6224883;22;20023;-90
2021/11/17 11:40:51;;;;;;;24.50;4.05;;;;;;;10.91;83.57;101974.81;6224125;22;20015;-92
2021/11/17 11:43:22;;;;;;;19.77;4.88;;;;;;;11.03;82.89;101978.13;6224434;22;20034;-92
2021/11/17 11:45:51;;;;;;;25.63;4.07;;;;;;;11.13;82.33;101964.63;6199968;22;20334;-91
2021/11/17 11:48:28;;;;;;;24.08;3.40;;;;;;;11.37;81.83;101977.53;6199771;22;20019;-92
2021/11/17 11:51:36;;;;;;;22.00;2.88;;;;;;;11.40;81.14;101966.44;6224854;22;20083;-90
2021/11/17 11:54:27;;;;;;;19.38;3.70;;;;;;;11.41;80.85;101982.47;6224547;22;20014;-92
2021/11/17 12:01:04;;;;;;;13.05;2.83;;;;;;;11.27;81.18;101993.72;6230688;22;20011;-91
2021/11/17 12:03:36;;;;;;;19.98;3.75;;;;;;;11.02;81.08;101973.75;6201104;22;20012;-92
2021/11/17 12:09:37;;;;;;;25.48;3.28;;;;;;;11.17;80.99;101990.28;6249741;22;20419;-91
2021/11/17 12:12:11;;;;;;;19.33;3.65;;;;;;;11.22;80.98;101987.97;6223582;22;20007;-93
2021/11/17 12:14:51;;;;;;;26.35;4.32;;;;;;;11.21;81.55;101983.56;6224415;22;20007;-91
2021/11/17 12:17:27;;;;;;;22.05;4.43;;;;;;;11.11;81.33;101980.09;6226901;22;20007;-93
2021/11/17 12:19:59;;;;;;;18.58;3.40;;;;;;;11.06;81.43;101988.63;6199514;22;20004;-92
2021/11/17 12:23:12;;;;;;;25.33;4.45;;;;;;;10.88;81.38;101977.78;6199026;22;20011;-92
2021/11/17 12:25:38;;;;;;;26.58;3.38;;;;;;;10.84;81.97;101995.22;6209526;22;20011;-93
2021/11/17 12:28:16;;;;;;;24.27;3.28;;;;;;;10.63;82.77;101991.88;6198715;22;20445;-92
2021/11/17 12:30:55;;;;;;;19.85;3.20;;;;;;;10.62;83.04;102003.66;6224172;22;20004;-91
2021/11/17 12:33:41;;;;;;;24.38;3.45;;;;;;;10.57;83.46;101982.56;6198777;22;20011;-92
2021/11/17 12:36:13;;;;;;;29.40;3.35;;;;;;;10.89;82.63;101990.25;6199622;22;19996;-91
2021/11/17 12:39:33;;;;;;;27.35;4.18;;;;;;;11.29;81.77;101996.28;6224347;22;20011;-91
2021/11/17 12:42:02;;;;;;;20.77;3.83;;;;;;;11.73;79.92;101997.28;6224044;22;20022;-92
2021/11/17 12:44:50;;;;;;;17.80;4.25;;;;;;;12.01;78.73;101991.84;6199374;22;20458;-91
2021/11/17 12:47:27;;;;;;;23.88;3.60;;;;;;;11.81;79.47;101983.88;6199662;22;20086;-93
2021/11/17 12:50:03;;;;;;;19.15;3.30;;;;;;;11.72;79.67;101979.41;6199578;22;20016;-91
2021/11/17 12:52:56;;;;;;;25.60;4.50;;;;;;;11.49;79.49;101975.50;6224289;22;20007;-91
2021/11/17 12:55:29;;;;;;;17.88;3.75;;;;;;;11.36;80.10;101981.25;6199613;22;20055;-93
2021/11/17 12:58:20;;;;;;;19.85;3.20;;;;;;;11.33;80.45;101982.38;6224243;22;20011;-91
2021/11/17 13:05:15;;;;;;;14.05;2.42;;;;;;;11.21;80.75;101968.25;6212912;23;20070;-91
2021/11/17 13:07:50;;;;;;;21.67;3.60;;;;;;;11.16;80.53;101953.56;6175731;22;20554;-93
2021/11/17 13:13:37;;;;;;;16.35;2.97;;;;;;;11.29;79.91;101970.22;6249874;22;20086;-91
2021/11/17 13:16:19;;;;;;;13.00;2.22;;;;;;;11.19;79.92;101964.91;6224626;22;20042;-91
2021/11/17 13:18:45;;;;;;;20.15;2.50;;;;;;;11.19;80.26;101969.41;6224831;22;20010;-90
2021/11/17 13:21:29;;;;;;;13.73;2.22;;;;;;;11.18;80.69;101970.41;6224849;22;20011;-93
2021/11/17 13:28:22;;;;;;;30.38;3.00;;;;;;;11.13;81.11;101970.84;6252103;22;20007;-91
2021/11/17 13:30:51;;;;;;;23.15;3.05;;;;;;;11.16;81.02;101958.94;6227010;22;20004;-91
2021/11/17 13:33:33;;;;;;;13.75;1.92;;;;;;;11.33;80.37;101957.31;6201347;22;20011;-90
2021/11/17 13:36:11;;;;;;;16.97;2.43;;;;;;;11.49;80.14;101959.34;6201489;22;20004;-92
2021/11/17 13:38:44;;;;;;;12.10;2.33;;;;;;;11.58;79.26;101956.53;6225943;22;20233;-90
2021/11/17 13:41:10;;;;;;;14.48;3.40;;;;;;;11.72;79.01;101951.63;6197129;22;20043;-93
2021/11/17 13:43:44;;;;;;;19.52;2.42;;;;;;;11.77;78.87;101963.63;6201335;22;20008;-91
2021/11/17 13:46:22;;;;;;;17.15;3.28;;;;;;;11.64;79.13;101949.69;6201083;22;20018;-92
2021/11/17 13:49:08;;;;;;;12.85;2.78;;;;;;;11.49;79.46;101943.16;6207158;22;20014;-93
2021/11/17 13:51:39;;;;;;;23.15;2.92;;;;;;;11.47;79.78;101934.38;6200800;22;20094;-91
2021/11/17 13:54:24;;;;;;;16.55;2.92;;;;;;;11.55;79.90;101948.78;6255573;22;20019;-91
2021/11/17 13:57:40;;;;;;;12.90;2.50;;;;;;;11.55;80.62;101947.94;6201755;22;20423;-90
2021/11/17 14:00:10;;;;;;;19.52;3.15;;;;;;;11.47;80.88;101937.94;6226114;22;19995;-91
2021/11/17 14:02:36;;;;;;;13.23;2.35;;;;;;;11.47;81.08;101935.22;6226259;22;20007;-92
2021/11/17 14:05:07;;;;;;;17.17;3.80;;;;;;;11.46;81.43;101936.25;6225664;22;20419;-92
2021/11/17 14:07:35;;;;;;;22.00;3.83;;;;;;;11.34;80.71;101926.69;6201099;22;20431;-91
2021/11/17 14:10:04;;;;;;;29.77;3.28;;;;;;;11.32;81.11;101932.19;6200522;22;20008;-92
2021/11/17 14:12:30;;;;;;;15.85;2.90;;;;;;;11.29;81.26;101927.13;6199957;22;20010;-93
2021/11/17 14:15:14;;;;;;;17.10;2.97;;;;;;;11.30;81.50;101931.53;6200906;22;19999;-93
2021/11/17 14:17:40;;;;;;;10.90;2.28;;;;;;;11.38;81.34;101936.16;6201137;22;20003;-93
2021/11/17 14:20:13;;;;;;;15.18;2.60;;;;;;;11.31;81.71;101935.91;6200917;22;20010;-92
2021/11/17 14:22:39;;;;;;;20.90;3.15;;;;;;;11.32;81.81;101921.44;6199804;22;20358;-90
2021/11/17 14:25:12;;;;;;;21.08;2.72;;;;;;;11.38;81.49;101920.84;6200083;22;20006;-92
2021/11/17 14:27:39;;;;;;;12.95;2.40;;;;;;;11.38;81.94;101910.06;6201040;22;20057;-93
2021/11/17 14:30:25;;;;;;;17.02;2.92;;;;;;;11.50;81.84;101940.31;6198966;22;20034;-91
2021/11/17 14:32:53;;;;;;;27.60;3.65;;;;;;;11.37;82.43;101929.91;6199496;22;20008;-93
2021/11/17 14:35:24;;;;;;;14.70;2.97;;;;;;;11.30;83.25;101938.75;6198913;22;20094;-92
2021/11/17 14:37:50;;;;;;;17.42;2.92;;;;;;;11.17;83.38;101922.97;6200927;22;20003;-91
2021/11/17 14:40:25;;;;;;;21.90;3.03;;;;;;;11.17;83.58;101923.81;6202055;22;20514;-91
2021/11/17 14:42:53;;;;;;;16.23;3.28;;;;;;;11.15;83.55;101909.66;6199277;22;20058;-92
2021/11/17 14:45:23;;;;;;;13.52;2.75;;;;;;;11.28;83.78;101920.06;6199192;22;20008;-92
2021/11/17 14:47:49;;;;;;;26.25;3.58;;;;;;;11.35;83.27;101918.47;6198861;22;20019;-93
2021/11/17 14:50:15;;;;;;;19.65;3.20;;;;;;;11.27;83.51;101910.28;6198675;22;20007;-91
2021/11/17 14:52:43;;;;;;;21.65;3.72;;;;;;;11.28;83.68;101925.44;6199630;22;20019;-92
2021/11/17 14:55:13;;;;;;;22.90;3.40;;;;;;;11.20;83.73;101912.75;6199742;22;20012;-91